Terminal Aerodrome Forecast
Issued by NWS Wilmington, NC

Home | Current Version | Previous Version | Text Only | Print | Product List | Glossary On
Versions: 1 2 3 4 5 6 7 8 9 10 11 12 13
000
FTUS42 KILM 211720
TAFMYR
TAF
KMYR 211720Z 2118/2218 10013KT P6SM SKC
     FM220300 08005KT P6SM FEW250
     FM221400 11011KT P6SM SCT045=

USA.gov is the U.S. government's official web portal to all federal, state and local government web resources and services.